This is the latest recevied weather packets stored in our database for station/object KI7JYE. If no packets are shown the sender has not sent any weather packets the latest 10 day(s).
| Time | Temp. | Humidity | Pressure | Rain* | Wind** | Luminosity | Snow |
|---|---|---|---|---|---|---|---|
| 1777701310 | 15° C | 58% | 1015.5 hPa | 0 mm | - | 0 W/m² | - |
| 1777701009 | 15° C | 57% | 1015.4 hPa | 0 mm | - | 0 W/m² | - |
| 1777700707 | 15.56° C | 57% | 1015.3 hPa | 0 mm | - | 0 W/m² | - |
| 1777700404 | 15.56° C | 57% | 1015.3 hPa | 0 mm | - | 0 W/m² | - |
| 1777700101 | 15.56° C | 57% | 1015.4 hPa | 0 mm | - | 0 W/m² | - |
| 1777699799 | 15.56° C | 58% | 1015.4 hPa | 0 mm | - | 0 W/m² | - |
| 1777699497 | 15.56° C | 56% | 1015 hPa | 0 mm | - | 0 W/m² | - |
| 1777699195 | 15.56° C | 56% | 1015.2 hPa | 0 mm | - | 0 W/m² | - |
| 1777698893 | 16.11° C | 56% | 1015.3 hPa | 0 mm | - | 0 W/m² | - |
| 1777698590 | 16.11° C | 56% | 1015.2 hPa | 0 mm | - | 0 W/m² | - |
| 1777698286 | 15.56° C | 62% | 1015.3 hPa | 0 mm | - | 0 W/m² | - |
| 1777697984 | 16.11° C | 56% | 1015 hPa | 0 mm | - | 0 W/m² | - |
| 1777697680 | 16.67° C | 54% | 1015.3 hPa | 0 mm | - | 0 W/m² | - |
| 1777697377 | 16.67° C | 54% | 1015.1 hPa | 0 mm | - | 0 W/m² | - |
| 1777697073 | 16.67° C | 55% | 1015 hPa | 0 mm | - | 0 W/m² | - |
| 1777696770 | 16.67° C | 55% | 1014.9 hPa | 0 mm | - | 0 W/m² | - |
| 1777696468 | 16.67° C | 54% | 1014.7 hPa | 0 mm | - | 0 W/m² | - |
| 1777696167 | 16.67° C | 54% | 1014.9 hPa | 0 mm | - | 0 W/m² | - |
| 1777695864 | 16.67° C | 56% | 1014.8 hPa | 0 mm | - | 0 W/m² | - |
| 1777695561 | 16.67° C | 57% | 1014.7 hPa | 0 mm | - | 0 W/m² | - |
| 1777695260 | 16.67° C | 59% | 1014.6 hPa | 0 mm | - | 0 W/m² | - |
| 1777694956 | 16.11° C | 65% | 1014.7 hPa | 0 mm | - | 0 W/m² | - |
| 1777694653 | 16.11° C | 65% | 1014.5 hPa | 0 mm | - | 0 W/m² | - |
| 1777694349 | 16.11° C | 68% | 1014.6 hPa | 0 mm | - | 0 W/m² | - |
| 1777694046 | 16.11° C | 72% | 1014.2 hPa | 0 mm | - | 0 W/m² | - |
* Rain latest hour (hover to see other rain measurements)
** Current wind speed in m/s (hover to see current wind gust speed)